sensor_id;sensor_type;location;lat;lon;timestamp;pressure;altitude;pressure_sealevel;temperature;humidity
62111;BME280;48102;47.526;19.072;2022-07-29T03:46:50;100377.62;;;20.50;69.69
62111;BME280;48102;47.526;19.072;2022-07-29T03:50:02;100377.62;;;20.50;69.69
62111;BME280;48102;47.526;19.072;2022-07-29T03:53:12;100384.53;;;20.02;71.25
62111;BME280;48102;47.526;19.072;2022-07-29T03:56:16;100384.44;;;20.04;71.91
62111;BME280;48102;47.526;19.072;2022-07-29T03:59:23;100390.06;;;20.11;71.29
62111;BME280;48102;47.526;19.072;2022-07-29T04:02:26;100392.34;;;20.15;71.70
62111;BME280;48102;47.526;19.072;2022-07-29T04:05:32;100392.66;;;20.22;71.02
62111;BME280;48102;47.526;19.072;2022-07-29T04:08:35;100393.37;;;20.34;69.43
62111;BME280;48102;47.526;19.072;2022-07-29T04:11:39;100394.50;;;20.41;69.85
62111;BME280;48102;47.526;19.072;2022-07-29T04:15:05;100390.91;;;20.51;69.13
62111;BME280;48102;47.526;19.072;2022-07-29T04:18:08;100390.34;;;20.58;69.71
62111;BME280;48102;47.526;19.072;2022-07-29T04:21:11;100401.47;;;20.63;70.20
62111;BME280;48102;47.526;19.072;2022-07-29T04:24:14;100403.72;;;20.67;69.54
62111;BME280;48102;47.526;19.072;2022-07-29T04:27:17;100398.78;;;20.72;69.04
62111;BME280;48102;47.526;19.072;2022-07-29T04:30:22;100393.47;;;20.82;69.04
62111;BME280;48102;47.526;19.072;2022-07-29T04:33:25;100399.50;;;20.94;68.46
62111;BME280;48102;47.526;19.072;2022-07-29T04:36:28;100399.78;;;21.00;68.41
62111;BME280;48102;47.526;19.072;2022-07-29T04:39:31;100395.97;;;21.13;67.26
62111;BME280;48102;47.526;19.072;2022-07-29T04:42:34;100396.66;;;21.24;67.51
62111;BME280;48102;47.526;19.072;2022-07-29T04:45:47;100391.72;;;21.39;66.10
62111;BME280;48102;47.526;19.072;2022-07-29T04:48:50;100394.94;;;21.52;65.59
62111;BME280;48102;47.526;19.072;2022-07-29T04:51:53;100400.66;;;21.67;64.68
62111;BME280;48102;47.526;19.072;2022-07-29T04:54:56;100401.22;;;21.71;64.24
62111;BME280;48102;47.526;19.072;2022-07-29T04:57:59;100398.19;;;21.84;64.89
62111;BME280;48102;47.526;19.072;2022-07-29T05:01:03;100396.03;;;21.97;63.32
62111;BME280;48102;47.526;19.072;2022-07-29T05:04:06;100400.06;;;22.11;63.13
62111;BME280;48102;47.526;19.072;2022-07-29T05:07:09;100405.97;;;22.24;63.46
62111;BME280;48102;47.526;19.072;2022-07-29T05:10:11;100403.84;;;22.45;62.18
62111;BME280;48102;47.526;19.072;2022-07-29T05:13:14;100403.16;;;22.61;61.90
62111;BME280;48102;47.526;19.072;2022-07-29T05:16:18;100405.53;;;22.82;61.48
62111;BME280;48102;47.526;19.072;2022-07-29T05:19:21;100407.25;;;23.01;60.51
62111;BME280;48102;47.526;19.072;2022-07-29T05:22:23;100396.09;;;23.14;61.06
62111;BME280;48102;47.526;19.072;2022-07-29T05:25:27;100400.56;;;23.23;61.42
62111;BME280;48102;47.526;19.072;2022-07-29T05:28:45;100400.44;;;23.33;60.08
62111;BME280;48102;47.526;19.072;2022-07-29T05:31:48;100398.31;;;23.44;59.56
62111;BME280;48102;47.526;19.072;2022-07-29T05:34:51;100400.97;;;23.62;59.76
62111;BME280;48102;47.526;19.072;2022-07-29T05:37:53;100408.25;;;23.70;57.74
62111;BME280;48102;47.526;19.072;2022-07-29T05:40:58;100408.31;;;23.78;57.89
62111;BME280;48102;47.526;19.072;2022-07-29T05:44:01;100405.00;;;23.84;58.08
62111;BME280;48102;47.526;19.072;2022-07-29T05:47:04;100406.87;;;23.92;58.60
62111;BME280;48102;47.526;19.072;2022-07-29T05:50:08;100405.22;;;23.99;57.19
62111;BME280;48102;47.526;19.072;2022-07-29T05:53:11;100414.34;;;24.06;56.65
62111;BME280;48102;47.526;19.072;2022-07-29T05:56:22;100413.72;;;24.20;57.85
62111;BME280;48102;47.526;19.072;2022-07-29T05:59:24;100408.53;;;24.27;57.00
62111;BME280;48102;47.526;19.072;2022-07-29T06:02:31;100415.78;;;24.35;56.29
62111;BME280;48102;47.526;19.072;2022-07-29T06:05:34;100413.63;;;24.38;55.93
62111;BME280;48102;47.526;19.072;2022-07-29T06:08:37;100415.31;;;24.39;54.81
62111;BME280;48102;47.526;19.072;2022-07-29T06:11:41;100419.75;;;24.48;54.79
62111;BME280;48102;47.526;19.072;2022-07-29T06:14:43;100418.25;;;24.62;54.08
62111;BME280;48102;47.526;19.072;2022-07-29T06:17:46;100416.09;;;24.66;53.50
62111;BME280;48102;47.526;19.072;2022-07-29T06:21:07;100423.16;;;24.75;54.46
62111;BME280;48102;47.526;19.072;2022-07-29T06:24:12;100422.31;;;24.83;52.88
62111;BME280;48102;47.526;19.072;2022-07-29T06:27:15;100415.75;;;24.93;51.92
62111;BME280;48102;47.526;19.072;2022-07-29T06:30:18;100425.03;;;25.07;51.94
62111;BME280;48102;47.526;19.072;2022-07-29T06:33:21;100425.25;;;25.22;51.68
62111;BME280;48102;47.526;19.072;2022-07-29T06:36:24;100421.69;;;25.38;49.74
62111;BME280;48102;47.526;19.072;2022-07-29T06:39:27;100427.91;;;25.55;49.64
62111;BME280;48102;47.526;19.072;2022-07-29T06:42:30;100432.97;;;25.49;49.59
62111;BME280;48102;47.526;19.072;2022-07-29T06:45:34;100432.28;;;25.56;48.07
62111;BME280;48102;47.526;19.072;2022-07-29T06:48:38;100434.09;;;25.71;48.58
62111;BME280;48102;47.526;19.072;2022-07-29T06:51:41;100432.88;;;25.90;48.06
62111;BME280;48102;47.526;19.072;2022-07-29T06:54:44;100436.84;;;26.19;47.12
62111;BME280;48102;47.526;19.072;2022-07-29T06:57:50;100435.75;;;26.36;46.35
62111;BME280;48102;47.526;19.072;2022-07-29T07:00:53;100439.38;;;26.60;47.33
62111;BME280;48102;47.526;19.072;2022-07-29T07:03:56;100437.25;;;26.78;45.88
62111;BME280;48102;47.526;19.072;2022-07-29T07:07:00;100430.91;;;27.09;45.48
62111;BME280;48102;47.526;19.072;2022-07-29T07:10:03;100431.03;;;27.38;44.14
62111;BME280;48102;47.526;19.072;2022-07-29T07:13:08;100428.06;;;27.48;43.03
62111;BME280;48102;47.526;19.072;2022-07-29T07:16:12;100437.03;;;27.63;44.41
62111;BME280;48102;47.526;19.072;2022-07-29T07:19:15;100429.22;;;27.68;41.42
62111;BME280;48102;47.526;19.072;2022-07-29T07:22:17;100422.53;;;27.94;41.52
62111;BME280;48102;47.526;19.072;2022-07-29T07:25:23;100418.44;;;28.34;41.37
62111;BME280;48102;47.526;19.072;2022-07-29T07:28:26;100427.84;;;28.68;40.91
62111;BME280;48102;47.526;19.072;2022-07-29T07:31:29;100422.78;;;28.65;41.00
62111;BME280;48102;47.526;19.072;2022-07-29T07:34:31;100419.72;;;28.53;40.71
62111;BME280;48102;47.526;19.072;2022-07-29T07:37:35;100425.09;;;28.46;41.11
62111;BME280;48102;47.526;19.072;2022-07-29T07:40:38;100425.16;;;28.53;41.43
62111;BME280;48102;47.526;19.072;2022-07-29T07:43:41;100423.69;;;28.50;41.04
62111;BME280;48102;47.526;19.072;2022-07-29T07:46:43;100427.63;;;28.33;42.22
62111;BME280;48102;47.526;19.072;2022-07-29T07:49:47;100414.81;;;28.27;41.10
62111;BME280;48102;47.526;19.072;2022-07-29T07:52:51;100412.28;;;28.40;40.63
62111;BME280;48102;47.526;19.072;2022-07-29T07:55:55;100428.59;;;28.62;40.89
62111;BME280;48102;47.526;19.072;2022-07-29T07:59:14;100417.38;;;28.65;41.09
62111;BME280;48102;47.526;19.072;2022-07-29T08:02:17;100416.91;;;28.61;40.31
62111;BME280;48102;47.526;19.072;2022-07-29T08:05:20;100414.06;;;28.69;41.14
62111;BME280;48102;47.526;19.072;2022-07-29T08:08:23;100414.53;;;28.73;39.98
62111;BME280;48102;47.526;19.072;2022-07-29T08:11:26;100416.72;;;28.84;39.35
62111;BME280;48102;47.526;19.072;2022-07-29T08:14:30;100405.00;;;28.98;40.62
62111;BME280;48102;47.526;19.072;2022-07-29T08:17:35;100415.31;;;29.10;40.19
62111;BME280;48102;47.526;19.072;2022-07-29T08:20:38;100409.87;;;29.10;39.24
62111;BME280;48102;47.526;19.072;2022-07-29T08:23:43;100415.56;;;29.36;40.87
62111;BME280;48102;47.526;19.072;2022-07-29T08:27:02;100406.84;;;29.47;39.35
62111;BME280;48102;47.526;19.072;2022-07-29T08:30:06;100408.66;;;29.40;39.03
62111;BME280;48102;47.526;19.072;2022-07-29T08:33:09;100404.03;;;29.34;39.46
62111;BME280;48102;47.526;19.072;2022-07-29T08:36:12;100407.22;;;29.38;40.03
62111;BME280;48102;47.526;19.072;2022-07-29T08:39:15;100409.97;;;29.44;39.04
62111;BME280;48102;47.526;19.072;2022-07-29T08:42:18;100405.53;;;29.37;38.56
62111;BME280;48102;47.526;19.072;2022-07-29T08:45:23;100406.59;;;29.64;38.92
62111;BME280;48102;47.526;19.072;2022-07-29T08:48:26;100398.19;;;29.93;37.66
62111;BME280;48102;47.526;19.072;2022-07-29T08:51:39;100404.53;;;30.14;39.21
62111;BME280;48102;47.526;19.072;2022-07-29T08:54:54;100399.53;;;30.11;37.19
62111;BME280;48102;47.526;19.072;2022-07-29T08:57:57;100390.41;;;30.18;37.25
62111;BME280;48102;47.526;19.072;2022-07-29T09:01:02;100388.22;;;30.14;37.04
62111;BME280;48102;47.526;19.072;2022-07-29T09:04:11;100391.66;;;30.22;38.57
62111;BME280;48102;47.526;19.072;2022-07-29T09:07:15;100391.50;;;30.37;38.02
62111;BME280;48102;47.526;19.072;2022-07-29T09:10:18;100386.31;;;30.56;37.79
62111;BME280;48102;47.526;19.072;2022-07-29T09:13:22;100384.62;;;30.61;37.14
62111;BME280;48102;47.526;19.072;2022-07-29T09:16:25;100383.78;;;30.61;37.04
62111;BME280;48102;47.526;19.072;2022-07-29T09:19:47;100382.81;;;30.82;36.29
62111;BME280;48102;47.526;19.072;2022-07-29T09:22:52;100380.56;;;31.05;35.47
62111;BME280;48102;47.526;19.072;2022-07-29T09:26:05;100379.72;;;31.05;36.00
62111;BME280;48102;47.526;19.072;2022-07-29T09:29:13;100375.53;;;31.22;35.84
62111;BME280;48102;47.526;19.072;2022-07-29T09:32:16;100373.22;;;31.32;37.58
62111;BME280;48102;47.526;19.072;2022-07-29T09:35:21;100373.41;;;31.57;36.21
62111;BME280;48102;47.526;19.072;2022-07-29T09:38:25;100365.16;;;31.77;35.65
62111;BME280;48102;47.526;19.072;2022-07-29T09:41:28;100359.50;;;31.92;35.00
62111;BME280;48102;47.526;19.072;2022-07-29T09:44:45;100365.06;;;32.04;34.85
62111;BME280;48102;47.526;19.072;2022-07-29T09:47:48;100364.66;;;32.07;32.82
62111;BME280;48102;47.526;19.072;2022-07-29T09:50:52;100356.22;;;32.15;32.66
62111;BME280;48102;47.526;19.072;2022-07-29T09:53:54;100352.16;;;31.92;32.57
62111;BME280;48102;47.526;19.072;2022-07-29T09:56:58;100352.56;;;31.96;32.55
62111;BME280;48102;47.526;19.072;2022-07-29T10:00:05;100349.31;;;32.12;32.43
62111;BME280;48102;47.526;19.072;2022-07-29T10:03:14;100344.41;;;32.28;33.85
62111;BME280;48102;47.526;19.072;2022-07-29T10:06:18;100346.00;;;32.04;32.12
62111;BME280;48102;47.526;19.072;2022-07-29T10:09:20;100341.03;;;32.32;31.49
62111;BME280;48102;47.526;19.072;2022-07-29T10:12:24;100344.78;;;32.44;30.98
62111;BME280;48102;47.526;19.072;2022-07-29T10:15:29;100335.69;;;32.12;31.25
62111;BME280;48102;47.526;19.072;2022-07-29T10:18:33;100331.41;;;31.91;32.13
62111;BME280;48102;47.526;19.072;2022-07-29T10:21:36;100337.75;;;31.59;32.56
62111;BME280;48102;47.526;19.072;2022-07-29T10:24:42;100342.22;;;31.40;32.81
62111;BME280;48102;47.526;19.072;2022-07-29T10:27:46;100326.50;;;31.29;32.23
62111;BME280;48102;47.526;19.072;2022-07-29T10:30:51;100323.34;;;31.45;31.85
62111;BME280;48102;47.526;19.072;2022-07-29T10:34:07;100325.81;;;31.60;32.15
62111;BME280;48102;47.526;19.072;2022-07-29T10:41:12;100318.84;;;32.85;30.18
62111;BME280;48102;47.526;19.072;2022-07-29T10:44:34;100318.19;;;32.65;30.03
62111;BME280;48102;47.526;19.072;2022-07-29T10:47:36;100317.00;;;32.16;30.39
62111;BME280;48102;47.526;19.072;2022-07-29T10:50:53;100319.00;;;31.95;30.47
62111;BME280;48102;47.526;19.072;2022-07-29T10:53:59;100311.00;;;32.01;31.02
62111;BME280;48102;47.526;19.072;2022-07-29T11:00:29;100299.22;;;32.07;30.92
62111;BME280;48102;47.526;19.072;2022-07-29T11:03:48;100301.34;;;32.36;29.75
62111;BME280;48102;47.526;19.072;2022-07-29T11:17:02;100288.50;;;35.29;28.12
62111;BME280;48102;47.526;19.072;2022-07-29T11:20:34;100293.72;;;35.31;27.76
62111;BME280;48102;47.526;19.072;2022-07-29T11:23:39;100287.22;;;35.72;26.92
62111;BME280;48102;47.526;19.072;2022-07-29T11:27:26;100286.62;;;36.10;24.92
62111;BME280;48102;47.526;19.072;2022-07-29T11:30:50;100281.31;;;36.49;26.13
62111;BME280;48102;47.526;19.072;2022-07-29T11:33:54;100275.66;;;36.73;25.03
62111;BME280;48102;47.526;19.072;2022-07-29T11:40:14;100274.97;;;36.99;25.92
62111;BME280;48102;47.526;19.072;2022-07-29T11:43:46;100270.50;;;36.93;24.90
62111;BME280;48102;47.526;19.072;2022-07-29T11:46:52;100264.00;;;36.99;24.44
62111;BME280;48102;47.526;19.072;2022-07-29T11:49:57;100255.16;;;37.14;23.06
62111;BME280;48102;47.526;19.072;2022-07-29T11:53:11;100251.81;;;38.00;23.32
62111;BME280;48102;47.526;19.072;2022-07-29T11:56:17;100251.84;;;38.64;21.29
62111;BME280;48102;47.526;19.072;2022-07-29T11:59:28;100256.78;;;39.47;20.64
62111;BME280;48102;47.526;19.072;2022-07-29T12:02:43;100256.84;;;39.57;21.91
62111;BME280;48102;47.526;19.072;2022-07-29T12:05:50;100248.38;;;39.79;20.69
62111;BME280;48102;47.526;19.072;2022-07-29T12:08:53;100251.66;;;39.66;21.49
62111;BME280;48102;47.526;19.072;2022-07-29T12:11:57;100257.91;;;40.65;20.82
62111;BME280;48102;47.526;19.072;2022-07-29T12:15:11;100250.03;;;41.38;17.58
62111;BME280;48102;47.526;19.072;2022-07-29T12:18:17;100239.69;;;41.59;18.78
62111;BME280;48102;47.526;19.072;2022-07-29T12:21:20;100238.22;;;40.86;19.99
62111;BME280;48102;47.526;19.072;2022-07-29T12:24:42;100233.41;;;43.19;18.27
62111;BME280;48102;47.526;19.072;2022-07-29T12:27:46;100230.03;;;43.46;16.43
62111;BME280;48102;47.526;19.072;2022-07-29T12:30:51;100223.97;;;43.44;16.07
62111;BME280;48102;47.526;19.072;2022-07-29T12:33:53;100225.38;;;45.24;16.26
62111;BME280;48102;47.526;19.072;2022-07-29T12:36:59;100215.78;;;47.84;14.43
62111;BME280;48102;47.526;19.072;2022-07-29T12:40:04;100209.22;;;48.79;13.16
62111;BME280;48102;47.526;19.072;2022-07-29T12:43:15;100206.56;;;50.26;12.35
62111;BME280;48102;47.526;19.072;2022-07-29T12:46:18;100196.63;;;51.10;11.96
62111;BME280;48102;47.526;19.072;2022-07-29T12:49:22;100191.22;;;51.82;10.44
62111;BME280;48102;47.526;19.072;2022-07-29T12:52:30;100187.69;;;51.45;9.47
62111;BME280;48102;47.526;19.072;2022-07-29T12:55:47;100181.22;;;52.25;9.91
62111;BME280;48102;47.526;19.072;2022-07-29T12:58:56;100172.13;;;52.48;10.09
62111;BME280;48102;47.526;19.072;2022-07-29T13:02:00;100181.88;;;53.17;8.69
62111;BME280;48102;47.526;19.072;2022-07-29T13:05:04;100184.09;;;52.76;9.02
62111;BME280;48102;47.526;19.072;2022-07-29T13:08:15;100179.34;;;53.47;8.53
62111;BME280;48102;47.526;19.072;2022-07-29T13:11:35;100177.94;;;54.61;9.05
62111;BME280;48102;47.526;19.072;2022-07-29T13:14:49;100172.66;;;54.82;7.61
62111;BME280;48102;47.526;19.072;2022-07-29T13:17:52;100156.94;;;54.58;9.52
62111;BME280;48102;47.526;19.072;2022-07-29T13:20:56;100147.41;;;55.53;8.13
62111;BME280;48102;47.526;19.072;2022-07-29T13:23:59;100143.75;;;54.93;8.01
62111;BME280;48102;47.526;19.072;2022-07-29T13:27:02;100150.19;;;54.67;8.55
62111;BME280;48102;47.526;19.072;2022-07-29T13:30:09;100141.53;;;56.03;7.19
62111;BME280;48102;47.526;19.072;2022-07-29T13:33:12;100152.41;;;56.97;7.08
62111;BME280;48102;47.526;19.072;2022-07-29T13:36:16;100147.22;;;57.02;6.68
62111;BME280;48102;47.526;19.072;2022-07-29T13:39:19;100137.97;;;57.16;6.49
62111;BME280;48102;47.526;19.072;2022-07-29T13:42:22;100139.22;;;54.84;7.42
62111;BME280;48102;47.526;19.072;2022-07-29T13:45:25;100112.03;;;50.14;10.54
62111;BME280;48102;47.526;19.072;2022-07-29T13:48:30;100098.09;;;45.66;13.24
62111;BME280;48102;47.526;19.072;2022-07-29T13:51:33;100083.69;;;42.71;15.68
62111;BME280;48102;47.526;19.072;2022-07-29T13:54:36;100085.91;;;41.03;16.98
62111;BME280;48102;47.526;19.072;2022-07-29T13:57:44;100083.03;;;42.79;16.06
62111;BME280;48102;47.526;19.072;2022-07-29T14:00:46;100093.41;;;48.42;12.71
62111;BME280;48102;47.526;19.072;2022-07-29T14:03:50;100097.66;;;52.77;8.91
62111;BME280;48102;47.526;19.072;2022-07-29T14:06:52;100103.62;;;55.74;8.33
62111;BME280;48102;47.526;19.072;2022-07-29T14:09:55;100096.88;;;55.15;8.18
62111;BME280;48102;47.526;19.072;2022-07-29T14:12:59;100077.94;;;50.61;10.39
62111;BME280;48102;47.526;19.072;2022-07-29T14:16:02;100062.81;;;46.06;13.47
62111;BME280;48102;47.526;19.072;2022-07-29T14:19:05;100061.41;;;44.50;14.51
62111;BME280;48102;47.526;19.072;2022-07-29T14:22:09;100054.34;;;47.34;12.48
62111;BME280;48102;47.526;19.072;2022-07-29T14:25:12;100068.59;;;51.34;9.81
62111;BME280;48102;47.526;19.072;2022-07-29T14:28:17;100064.69;;;54.66;7.75
62111;BME280;48102;47.526;19.072;2022-07-29T14:31:20;100073.66;;;56.54;6.88
62111;BME280;48102;47.526;19.072;2022-07-29T14:34:23;100082.19;;;57.35;6.52
62111;BME280;48102;47.526;19.072;2022-07-29T14:37:25;100075.88;;;58.27;5.64
62111;BME280;48102;47.526;19.072;2022-07-29T14:40:28;100077.91;;;58.09;6.84
62111;BME280;48102;47.526;19.072;2022-07-29T14:43:31;100074.09;;;58.94;6.17
62111;BME280;48102;47.526;19.072;2022-07-29T14:46:34;100063.59;;;57.55;6.23
62111;BME280;48102;47.526;19.072;2022-07-29T14:49:37;100057.19;;;58.55;6.25
62111;BME280;48102;47.526;19.072;2022-07-29T14:52:40;100053.56;;;59.45;5.36
62111;BME280;48102;47.526;19.072;2022-07-29T14:55:43;100064.41;;;60.62;5.29
62111;BME280;48102;47.526;19.072;2022-07-29T14:58:46;100065.75;;;61.76;4.46
62111;BME280;48102;47.526;19.072;2022-07-29T15:01:53;100037.78;;;60.76;4.61
62111;BME280;48102;47.526;19.072;2022-07-29T15:04:56;100033.87;;;59.76;5.03
62111;BME280;48102;47.526;19.072;2022-07-29T15:07:59;100027.56;;;60.03;4.74
62111;BME280;48102;47.526;19.072;2022-07-29T15:11:02;100027.44;;;60.17;4.73
62111;BME280;48102;47.526;19.072;2022-07-29T15:14:05;100027.34;;;61.27;4.63
